Time;durP1;ratioP1;P1;durP2;ratioP2;P2;SDS_P1;SDS_P2;PMS_P1;PMS_P2;Temp;Humidity;BMP_temperature;BMP_pressure;BME280_temperature;BME280_humidity;BME280_pressure;Samples;Min_cycle;Max_cycle;Signal;HPM_P1;HPM_P2
2023/07/28 00:02:20;;;;;;;2.30;2.10;;;17.30;1.00;;;;;;5048150;28;21006;-77
2023/07/28 00:04:47;;;;;;;1.70;1.60;;;17.30;1.00;;;;;;5045664;28;20449;-76
2023/07/28 00:07:14;;;;;;;1.70;1.60;;;17.30;1.00;;;;;;5046313;28;20448;-76
2023/07/28 00:09:41;;;;;;;2.20;2.10;;;17.40;1.00;;;;;;5045190;28;20453;-77
2023/07/28 00:12:09;;;;;;;2.37;2.17;;;17.30;1.00;;;;;;5051004;28;20531;-77
2023/07/28 00:14:36;;;;;;;2.43;1.87;;;17.40;1.00;;;;;;5049870;28;20457;-76
2023/07/28 00:17:03;;;;;;;3.10;2.50;;;17.30;1.00;;;;;;5048810;28;20835;-76
2023/07/28 00:19:31;;;;;;;6.27;2.50;;;17.30;1.00;;;;;;5049169;28;20483;-77
2023/07/28 00:21:58;;;;;;;3.83;2.63;;;17.30;1.00;;;;;;5049690;28;20877;-76
2023/07/28 00:24:25;;;;;;;2.73;2.53;;;17.30;1.00;;;;;;5045384;28;20504;-77
2023/07/28 00:26:52;;;;;;;9.20;3.10;;;17.40;1.00;;;;;;5048016;28;20462;-77
2023/07/28 00:29:20;;;;;;;3.70;2.83;;;17.40;1.00;;;;;;5049156;28;20977;-78
2023/07/28 00:31:47;;;;;;;3.00;2.47;;;17.40;1.00;;;;;;5046710;28;20556;-80
2023/07/28 00:34:14;;;;;;;3.20;2.90;;;17.40;1.00;;;;;;5045913;28;20535;-77
2023/07/28 00:36:43;;;;;;;3.37;3.07;;;17.40;1.00;;;;;;5029765;28;20457;-77
2023/07/28 00:39:10;;;;;;;3.10;2.90;;;17.40;1.00;;;;;;5046606;28;20469;-77
2023/07/28 00:41:37;;;;;;;4.30;3.90;;;17.40;1.00;;;;;;5054507;28;20499;-78
2023/07/28 00:44:04;;;;;;;4.87;4.33;;;17.40;1.00;;;;;;5046528;28;20451;-77
2023/07/28 00:46:32;;;;;;;4.53;4.20;;;17.50;1.00;;;;;;5046118;28;20490;-78
2023/07/28 00:48:59;;;;;;;5.10;4.30;;;17.50;1.00;;;;;;5047992;28;20449;-77
2023/07/28 00:51:26;;;;;;;5.67;5.13;;;17.40;1.00;;;;;;5048305;28;20536;-77
2023/07/28 00:53:55;;;;;;;5.13;4.77;;;17.40;1.00;;;;;;5051798;28;20461;-78
2023/07/28 00:56:22;;;;;;;6.30;5.43;;;17.40;1.00;;;;;;5047241;28;20514;-79
2023/07/28 00:58:50;;;;;;;6.00;5.40;;;17.30;1.00;;;;;;5053041;28;20456;-77
2023/07/28 01:01:17;;;;;;;5.60;5.20;;;17.40;1.00;;;;;;5044585;28;20475;-77
2023/07/28 01:03:44;;;;;;;5.73;4.87;;;17.40;1.00;;;;;;5047627;28;20461;-77
2023/07/28 01:06:27;;;;;;;5.17;4.67;;;17.40;1.00;;;;;;5046100;28;20477;-77
2023/07/28 01:08:59;;;;;;;5.17;4.77;;;17.40;1.00;;;;;;5045795;28;20471;-77
2023/07/28 01:11:27;;;;;;;4.97;4.60;;;17.40;1.00;;;;;;5044758;28;20544;-77
2023/07/28 01:13:54;;;;;;;4.50;4.20;;;17.40;1.00;;;;;;5048221;28;20456;-78
2023/07/28 01:16:23;;;;;;;5.40;4.90;;;17.40;1.00;;;;;;5051655;28;20465;-77
2023/07/28 01:18:50;;;;;;;5.10;4.60;;;17.50;1.00;;;;;;5043797;28;20477;-77
2023/07/28 01:21:23;;;;;;;4.30;3.90;;;17.50;1.00;;;;;;5046341;28;20467;-77
2023/07/28 01:24:02;;;;;;;4.40;4.10;;;17.50;1.00;;;;;;5045451;28;20982;-77
2023/07/28 01:26:36;;;;;;;4.57;4.17;;;17.50;1.00;;;;;;5043191;28;21420;-77
2023/07/28 01:29:04;;;;;;;3.70;3.40;;;17.60;1.00;;;;;;5046823;28;20454;-77
2023/07/28 01:31:32;;;;;;;4.27;3.97;;;17.60;1.00;;;;;;5045887;28;20538;-77
2023/07/28 01:33:59;;;;;;;4.13;3.73;;;17.60;1.00;;;;;;5042844;28;20477;-76
2023/07/28 01:36:26;;;;;;;4.23;3.63;;;17.60;1.00;;;;;;5033060;28;20555;-76
2023/07/28 01:38:53;;;;;;;4.87;3.90;;;17.60;1.00;;;;;;5043790;28;20943;-75
2023/07/28 01:41:20;;;;;;;4.53;3.53;;;17.60;1.00;;;;;;5049971;28;20464;-76
2023/07/28 01:43:49;;;;;;;3.87;3.53;;;17.60;1.00;;;;;;5042879;28;20536;-76
2023/07/28 01:46:16;;;;;;;3.73;3.37;;;17.60;1.00;;;;;;5049679;28;20465;-76
2023/07/28 01:48:43;;;;;;;4.03;3.23;;;17.60;1.00;;;;;;5045017;28;21316;-77
2023/07/28 01:51:10;;;;;;;3.83;3.43;;;17.60;1.00;;;;;;5046106;28;20495;-76
2023/07/28 01:53:37;;;;;;;5.83;5.17;;;17.60;1.00;;;;;;5047382;28;20560;-79
2023/07/28 01:56:05;;;;;;;7.97;5.27;;;17.60;1.00;;;;;;5047189;28;20558;-77
2023/07/28 01:58:32;;;;;;;4.90;3.83;;;17.60;1.00;;;;;;5042762;28;20906;-78
2023/07/28 02:01:00;;;;;;;4.10;3.70;;;17.70;1.00;;;;;;5045822;28;20552;-78
2023/07/28 02:03:28;;;;;;;3.97;3.60;;;17.70;1.00;;;;;;5037244;28;20577;-77
2023/07/28 02:05:58;;;;;;;4.90;4.40;;;17.60;1.00;;;;;;5048828;28;20461;-79
2023/07/28 02:08:25;;;;;;;5.40;3.93;;;17.60;1.00;;;;;;5052290;28;20452;-78
2023/07/28 02:10:55;;;;;;;4.90;4.40;;;17.70;1.00;;;;;;5042825;28;20563;-79
2023/07/28 02:13:22;;;;;;;4.70;4.00;;;17.70;1.00;;;;;;5049285;28;20480;-77
2023/07/28 02:15:49;;;;;;;4.27;3.87;;;17.70;1.00;;;;;;5047978;28;20553;-78
2023/07/28 02:18:18;;;;;;;4.30;3.37;;;17.70;1.00;;;;;;5048666;28;20543;-79
2023/07/28 02:20:45;;;;;;;4.80;4.40;;;17.80;1.00;;;;;;5045911;28;20478;-78
2023/07/28 02:23:13;;;;;;;4.80;3.67;;;17.80;1.00;;;;;;5048507;28;20462;-78
2023/07/28 02:25:40;;;;;;;5.80;4.00;;;17.80;1.00;;;;;;5046826;28;20994;-79
2023/07/28 02:28:08;;;;;;;5.93;4.00;;;17.80;1.00;;;;;;5045008;28;20458;-77
2023/07/28 02:30:35;;;;;;;5.63;4.50;;;17.80;1.00;;;;;;5047355;28;20560;-79
2023/07/28 02:33:02;;;;;;;8.80;4.93;;;17.80;1.00;;;;;;5047490;28;20995;-77
2023/07/28 02:35:31;;;;;;;5.33;4.53;;;17.80;1.00;;;;;;5045903;28;20493;-77
2023/07/28 02:38:02;;;;;;;6.70;5.03;;;17.80;1.00;;;;;;5045194;28;20453;-77
2023/07/28 02:40:29;;;;;;;6.00;5.00;;;17.80;1.00;;;;;;5048275;28;21021;-76
2023/07/28 02:42:56;;;;;;;6.23;4.30;;;17.80;1.00;;;;;;5045286;28;20936;-76
2023/07/28 02:45:24;;;;;;;5.60;5.10;;;17.80;1.00;;;;;;5045320;28;21326;-76
2023/07/28 02:47:52;;;;;;;5.30;4.90;;;17.80;1.00;;;;;;5042128;28;20457;-78
2023/07/28 02:50:19;;;;;;;6.13;4.67;;;17.80;1.00;;;;;;5046637;28;20540;-76
2023/07/28 02:52:47;;;;;;;5.30;4.77;;;17.80;1.00;;;;;;5046242;28;20574;-76
2023/07/28 02:55:15;;;;;;;5.20;4.67;;;17.80;1.00;;;;;;5044799;28;21638;-77
2023/07/28 02:57:42;;;;;;;6.50;4.73;;;17.80;1.00;;;;;;5042717;28;20568;-76
2023/07/28 03:00:11;;;;;;;6.97;5.67;;;17.80;1.00;;;;;;5042898;28;20468;-75
2023/07/28 03:02:38;;;;;;;7.00;4.60;;;17.80;1.00;;;;;;5027430;28;20473;-76
2023/07/28 03:05:06;;;;;;;6.80;5.30;;;17.90;1.00;;;;;;5045298;28;20536;-76
2023/07/28 03:07:36;;;;;;;5.13;4.70;;;17.90;1.00;;;;;;5047508;28;20460;-76
2023/07/28 03:10:16;;;;;;;5.17;4.67;;;17.90;1.00;;;;;;5045428;28;20470;-76
2023/07/28 03:12:43;;;;;;;5.13;4.63;;;17.90;1.00;;;;;;5046231;28;20547;-76
2023/07/28 03:15:10;;;;;;;7.40;5.30;;;17.90;1.00;;;;;;5043225;28;20465;-77
2023/07/28 03:17:38;;;;;;;6.30;5.30;;;17.90;1.00;;;;;;5045821;28;20455;-76
2023/07/28 03:20:07;;;;;;;5.10;4.70;;;17.90;1.00;;;;;;5052588;28;20476;-76
2023/07/28 03:22:34;;;;;;;5.93;5.33;;;17.90;1.00;;;;;;5042783;28;20515;-77
2023/07/28 03:25:01;;;;;;;6.80;5.57;;;17.90;1.00;;;;;;5043277;28;20519;-77
2023/07/28 03:27:29;;;;;;;7.03;5.40;;;17.90;1.00;;;;;;5046176;28;20995;-76
2023/07/28 03:29:57;;;;;;;7.73;5.30;;;17.90;1.00;;;;;;5044154;28;20474;-76
2023/07/28 03:32:24;;;;;;;8.37;6.20;;;17.90;1.00;;;;;;5045624;28;20461;-76
2023/07/28 03:34:51;;;;;;;6.53;5.90;;;17.90;1.00;;;;;;5047374;28;20493;-76
2023/07/28 03:37:19;;;;;;;8.80;5.23;;;17.90;1.00;;;;;;5046120;28;20455;-76
2023/07/28 03:39:46;;;;;;;5.87;5.03;;;17.90;1.00;;;;;;5048816;28;20477;-77
2023/07/28 03:42:13;;;;;;;6.63;6.03;;;17.90;1.00;;;;;;5044381;28;20450;-77
2023/07/28 03:44:42;;;;;;;6.73;5.70;;;17.90;1.00;;;;;;5047975;28;20528;-77
2023/07/28 03:47:09;;;;;;;6.60;5.90;;;17.90;1.00;;;;;;5051382;28;21177;-76
2023/07/28 03:49:36;;;;;;;7.00;6.30;;;17.90;1.00;;;;;;5052415;28;20477;-77
2023/07/28 03:52:03;;;;;;;7.20;6.50;;;17.90;1.00;;;;;;5040226;28;20534;-77
2023/07/28 03:54:30;;;;;;;7.47;6.00;;;17.90;1.00;;;;;;5049320;28;20957;-77
2023/07/28 03:56:57;;;;;;;7.07;5.80;;;17.90;1.00;;;;;;5047726;28;20461;-77
2023/07/28 03:59:24;;;;;;;8.73;6.50;;;17.90;1.00;;;;;;5049691;28;20460;-77
2023/07/28 04:01:53;;;;;;;6.97;5.67;;;17.90;1.00;;;;;;5045631;28;20943;-77
2023/07/28 04:04:20;;;;;;;7.60;6.30;;;18.00;1.00;;;;;;5043873;28;20471;-77
2023/07/28 04:06:50;;;;;;;6.57;5.93;;;18.00;1.00;;;;;;5046796;28;20453;-76
2023/07/28 04:09:20;;;;;;;6.87;6.17;;;18.00;1.00;;;;;;5053383;28;20554;-76
2023/07/28 04:11:47;;;;;;;8.57;6.20;;;18.00;1.00;;;;;;5043788;28;20451;-77
2023/07/28 04:14:14;;;;;;;9.20;7.60;;;18.00;1.00;;;;;;5046749;28;20452;-77
2023/07/28 04:16:42;;;;;;;7.37;6.60;;;18.00;1.00;;;;;;5047220;28;20540;-77
2023/07/28 04:19:10;;;;;;;8.80;7.90;;;17.90;1.00;;;;;;5047774;28;20492;-77
2023/07/28 04:21:39;;;;;;;7.30;6.60;;;18.00;1.00;;;;;;5049590;28;21153;-78
2023/07/28 04:24:07;;;;;;;6.63;5.97;;;18.00;1.00;;;;;;5046857;28;21336;-77
2023/07/28 04:26:34;;;;;;;6.87;6.17;;;18.00;1.00;;;;;;5047459;28;20597;-77
2023/07/28 04:29:01;;;;;;;7.83;6.80;;;18.00;1.00;;;;;;5045370;28;20466;-78
2023/07/28 04:31:29;;;;;;;7.60;6.80;;;18.00;1.00;;;;;;5047648;28;20507;-77
2023/07/28 04:33:56;;;;;;;7.20;6.50;;;18.00;1.00;;;;;;5045810;28;20481;-77
2023/07/28 04:36:25;;;;;;;7.30;6.60;;;18.00;1.00;;;;;;5049264;28;20560;-77
2023/07/28 04:38:52;;;;;;;8.60;7.40;;;18.10;1.00;;;;;;5048303;28;20477;-77
2023/07/28 04:41:19;;;;;;;8.70;6.80;;;18.10;1.00;;;;;;5046293;28;20454;-77
2023/07/28 04:43:46;;;;;;;7.73;6.97;;;18.10;1.00;;;;;;5045279;28;20540;-77
2023/07/28 04:46:13;;;;;;;10.23;7.40;;;18.20;1.00;;;;;;5048134;28;20461;-77
2023/07/28 04:48:40;;;;;;;9.53;7.07;;;18.30;1.00;;;;;;5047236;28;20502;-77
2023/07/28 04:51:07;;;;;;;7.90;7.20;;;18.30;1.00;;;;;;5047732;28;20470;-78
2023/07/28 04:53:36;;;;;;;9.10;8.07;;;18.30;1.00;;;;;;5049273;28;21010;-78
2023/07/28 04:56:03;;;;;;;8.37;7.57;;;18.40;1.00;;;;;;5045717;28;20465;-78
2023/07/28 04:58:30;;;;;;;8.53;7.73;;;18.30;1.00;;;;;;5045274;28;20470;-78
2023/07/28 05:00:57;;;;;;;11.17;8.57;;;18.30;1.00;;;;;;5045503;28;20984;-78
2023/07/28 05:03:25;;;;;;;8.40;7.60;;;18.30;1.00;;;;;;5047161;28;20910;-78
2023/07/28 05:05:54;;;;;;;14.47;8.60;;;18.20;1.00;;;;;;5048371;28;20696;-78
2023/07/28 05:08:21;;;;;;;8.50;7.70;;;18.20;1.00;;;;;;5050575;28;20478;-78
2023/07/28 05:10:49;;;;;;;7.93;7.13;;;18.20;1.00;;;;;;5050599;28;20542;-79
2023/07/28 05:13:17;;;;;;;8.13;7.43;;;18.20;1.00;;;;;;5046419;28;20468;-80
2023/07/28 05:15:44;;;;;;;11.10;7.73;;;18.20;1.00;;;;;;5047125;28;20477;-79
2023/07/28 05:18:13;;;;;;;8.63;7.50;;;18.20;1.00;;;;;;5049168;28;20470;-77
2023/07/28 05:20:40;;;;;;;9.17;8.27;;;18.20;1.00;;;;;;5049670;28;20880;-80
2023/07/28 05:23:07;;;;;;;8.30;7.60;;;18.20;1.00;;;;;;5045636;28;20838;-78
2023/07/28 05:25:34;;;;;;;8.33;7.53;;;18.20;1.00;;;;;;5036745;28;20592;-78
2023/07/28 05:28:03;;;;;;;8.33;7.53;;;18.20;1.00;;;;;;5045765;28;20468;-78
2023/07/28 05:30:30;;;;;;;8.50;7.70;;;18.20;1.00;;;;;;5043342;28;21006;-79
2023/07/28 05:32:57;;;;;;;8.10;7.40;;;18.30;1.00;;;;;;5047696;28;20473;-78
2023/07/28 05:35:24;;;;;;;8.37;7.53;;;18.30;1.00;;;;;;5048260;28;20454;-78
2023/07/28 05:37:52;;;;;;;7.40;6.77;;;18.30;1.00;;;;;;5044839;28;20554;-78
2023/07/28 05:40:19;;;;;;;7.90;7.23;;;18.30;1.00;;;;;;5047360;28;20475;-78
2023/07/28 05:42:46;;;;;;;8.10;7.30;;;18.30;1.00;;;;;;5050622;28;20502;-77
2023/07/28 05:45:17;;;;;;;8.90;8.10;;;18.20;1.00;;;;;;5051028;28;21470;-79
2023/07/28 05:47:44;;;;;;;7.80;7.00;;;18.30;1.00;;;;;;5049523;28;20473;-78
2023/07/28 05:50:11;;;;;;;7.37;6.63;;;18.30;1.00;;;;;;5046266;28;20459;-78
2023/07/28 05:52:38;;;;;;;7.03;6.43;;;18.30;1.00;;;;;;5046424;28;20483;-78
2023/07/28 05:55:06;;;;;;;8.90;8.00;;;18.30;1.00;;;;;;5044752;28;20454;-78
2023/07/28 05:57:33;;;;;;;8.10;7.30;;;18.40;1.00;;;;;;5047082;28;21187;-78
2023/07/28 06:00:00;;;;;;;7.33;6.73;;;18.40;1.00;;;;;;5050703;28;20455;-79
2023/07/28 06:02:29;;;;;;;7.70;6.93;;;18.40;1.00;;;;;;5049811;28;20466;-78
2023/07/28 06:04:56;;;;;;;7.80;7.20;;;18.40;1.00;;;;;;5045215;28;20509;-78
2023/07/28 06:07:23;;;;;;;8.30;7.50;;;18.40;1.00;;;;;;5047888;28;20439;-78
2023/07/28 06:09:50;;;;;;;7.53;6.93;;;18.50;1.00;;;;;;5043674;28;20895;-78
2023/07/28 06:12:19;;;;;;;6.00;5.47;;;18.50;1.00;;;;;;5027517;28;20462;-78
2023/07/28 06:14:46;;;;;;;6.43;5.80;;;18.40;1.00;;;;;;5044182;28;20533;-77
2023/07/28 06:17:13;;;;;;;8.47;7.17;;;18.40;1.00;;;;;;5052236;28;20468;-81
2023/07/28 06:19:43;;;;;;;6.87;6.27;;;18.40;1.00;;;;;;5049998;28;20463;-78
2023/07/28 06:22:12;;;;;;;7.07;6.37;;;18.40;1.00;;;;;;5045855;28;20581;-79
2023/07/28 06:24:39;;;;;;;8.87;7.13;;;18.40;1.00;;;;;;5045098;28;20450;-77
2023/07/28 06:27:08;;;;;;;6.80;6.20;;;18.40;1.00;;;;;;5045893;28;20473;-78
2023/07/28 06:29:35;;;;;;;7.90;7.10;;;18.30;1.00;;;;;;5046724;28;20467;-77
2023/07/28 06:32:06;;;;;;;6.10;5.50;;;18.30;1.00;;;;;;5047081;28;20469;-81
2023/07/28 06:34:33;;;;;;;7.47;6.87;;;18.30;1.00;;;;;;5042529;28;20455;-78
2023/07/28 06:37:02;;;;;;;8.93;7.10;;;18.30;1.00;;;;;;5044023;28;20496;-78
2023/07/28 06:39:30;;;;;;;7.37;6.73;;;18.30;1.00;;;;;;5027210;28;20465;-78
2023/07/28 06:41:57;;;;;;;7.50;6.67;;;18.30;1.00;;;;;;5043072;28;20956;-79
2023/07/28 06:44:45;;;;;;;6.63;6.13;;;18.30;1.00;;;;;;5045542;28;20898;-80
2023/07/28 06:47:17;;;;;;;6.03;5.40;;;18.40;1.00;;;;;;5046310;28;20461;-78
2023/07/28 06:49:53;;;;;;;7.17;6.57;;;18.40;1.00;;;;;;5020217;28;20469;-80
2023/07/28 06:52:22;;;;;;;7.27;6.57;;;18.50;1.00;;;;;;5045126;28;20911;-77
2023/07/28 06:54:50;;;;;;;6.53;5.93;;;18.60;1.00;;;;;;5045925;28;20463;-77
2023/07/28 06:57:17;;;;;;;6.80;6.13;;;18.60;1.00;;;;;;5040940;28;21018;-77
2023/07/28 06:59:44;;;;;;;7.07;6.50;;;18.60;1.00;;;;;;5046903;28;20541;-78
2023/07/28 07:02:12;;;;;;;8.33;6.70;;;18.60;1.00;;;;;;5044560;28;20476;-76
2023/07/28 07:04:39;;;;;;;6.93;6.23;;;18.60;1.00;;;;;;5044189;28;20451;-77
2023/07/28 07:07:06;;;;;;;5.50;5.10;;;18.70;1.00;;;;;;5043435;28;20499;-77
2023/07/28 07:09:34;;;;;;;6.60;6.00;;;18.80;1.00;;;;;;5046757;28;20462;-76
2023/07/28 07:12:02;;;;;;;7.13;5.77;;;18.90;1.00;;;;;;5048759;28;20467;-77
2023/07/28 07:14:29;;;;;;;5.20;4.50;;;19.00;1.00;;;;;;5048993;28;20513;-77
2023/07/28 07:16:56;;;;;;;5.67;5.17;;;19.10;1.00;;;;;;5046159;28;20568;-77
2023/07/28 07:19:23;;;;;;;6.47;5.83;;;19.20;1.00;;;;;;5043040;28;20461;-77
2023/07/28 07:21:50;;;;;;;5.77;5.33;;;19.20;1.00;;;;;;5044166;28;20510;-76
2023/07/28 07:24:17;;;;;;;5.53;4.80;;;19.30;1.00;;;;;;5041463;28;20493;-78
2023/07/28 07:26:47;;;;;;;5.97;4.97;;;19.40;1.00;;;;;;5044238;28;20482;-77
2023/07/28 07:29:14;;;;;;;5.23;4.63;;;19.40;1.00;;;;;;5043243;28;20459;-78
2023/07/28 07:31:41;;;;;;;5.57;5.00;;;19.50;1.00;;;;;;5033823;28;20573;-77
2023/07/28 07:34:08;;;;;;;4.63;4.33;;;19.40;1.00;;;;;;5041323;28;20502;-77
2023/07/28 07:36:35;;;;;;;4.53;4.03;;;19.30;1.00;;;;;;5043816;28;20482;-77
2023/07/28 07:39:02;;;;;;;5.10;4.70;;;19.40;1.00;;;;;;5045106;28;20472;-77
2023/07/28 07:41:30;;;;;;;4.50;4.20;;;19.40;1.00;;;;;;5042062;28;20457;-77
2023/07/28 07:43:59;;;;;;;4.23;3.83;;;19.60;1.00;;;;;;5047068;28;20554;-77
2023/07/28 07:46:25;;;;;;;4.23;3.83;;;19.80;1.00;;;;;;5046837;28;20469;-77
2023/07/28 07:48:52;;;;;;;4.30;3.67;;;19.80;1.00;;;;;;5048222;28;20541;-77
2023/07/28 07:51:20;;;;;;;4.17;3.77;;;19.90;1.00;;;;;;5045976;28;20534;-77
2023/07/28 07:53:47;;;;;;;4.90;4.40;;;20.00;1.00;;;;;;5046194;28;20658;-77
2023/07/28 07:56:14;;;;;;;4.03;3.67;;;20.30;1.00;;;;;;5046474;28;20569;-77
2023/07/28 07:58:41;;;;;;;3.40;3.10;;;20.50;1.00;;;;;;5045859;28;21254;-77
2023/07/28 08:01:10;;;;;;;2.83;2.63;;;20.50;1.00;;;;;;5044992;28;20530;-77
2023/07/28 08:03:37;;;;;;;3.20;2.77;;;20.70;1.00;;;;;;5043707;28;20553;-77
2023/07/28 08:06:05;;;;;;;3.03;2.53;;;21.00;1.00;;;;;;5047709;28;20471;-77
2023/07/28 08:08:32;;;;;;;2.73;2.47;;;20.90;1.00;;;;;;5042223;28;20456;-77
2023/07/28 08:11:00;;;;;;;2.70;2.50;;;20.90;1.00;;;;;;5044248;28;20540;-77
2023/07/28 08:13:28;;;;;;;2.97;2.73;;;20.90;1.00;;;;;;5045892;28;20554;-77
2023/07/28 08:15:57;;;;;;;2.30;2.10;;;21.00;1.00;;;;;;5044402;28;20496;-77
2023/07/28 08:18:25;;;;;;;2.90;2.47;;;21.10;1.00;;;;;;5045629;28;20933;-77
2023/07/28 08:20:52;;;;;;;2.00;1.90;;;21.20;1.00;;;;;;5042577;28;20495;-78
2023/07/28 08:23:19;;;;;;;3.27;2.03;;;21.40;1.00;;;;;;5027416;28;20478;-78
2023/07/28 08:25:46;;;;;;;1.93;1.83;;;21.50;1.00;;;;;;5045628;28;20476;-76
2023/07/28 08:28:14;;;;;;;2.70;2.20;;;21.60;1.00;;;;;;5043826;28;20464;-77
2023/07/28 08:30:41;;;;;;;2.30;2.10;;;21.70;1.00;;;;;;5040947;28;20514;-78
2023/07/28 08:33:08;;;;;;;2.70;2.50;;;21.90;1.00;;;;;;5047796;28;20453;-78
2023/07/28 08:35:37;;;;;;;2.33;1.97;;;21.80;1.00;;;;;;5051066;28;20475;-78
2023/07/28 08:38:05;;;;;;;1.83;1.73;;;21.60;1.00;;;;;;5048168;28;21027;-77
2023/07/28 08:40:35;;;;;;;2.43;2.30;;;21.40;1.00;;;;;;5042851;28;20471;-78
2023/07/28 08:43:05;;;;;;;1.90;1.80;;;21.10;1.00;;;;;;5051176;28;20454;-77
2023/07/28 08:45:32;;;;;;;2.30;2.10;;;20.90;1.00;;;;;;5043343;28;20459;-77
2023/07/28 08:48:00;;;;;;;2.23;2.03;;;20.90;1.00;;;;;;5043595;28;20446;-77
2023/07/28 08:50:29;;;;;;;1.80;1.70;;;20.90;1.00;;;;;;5048016;28;20474;-77
2023/07/28 08:52:59;;;;;;;1.93;1.83;;;20.90;1.00;;;;;;5050060;28;20481;-78
2023/07/28 08:55:27;;;;;;;3.03;2.13;;;21.10;1.00;;;;;;5047939;28;20476;-77
2023/07/28 08:57:54;;;;;;;2.03;1.83;;;21.50;1.00;;;;;;5043913;28;20476;-77
2023/07/28 09:00:21;;;;;;;1.50;1.40;;;21.90;1.00;;;;;;5043673;28;20462;-77
2023/07/28 09:02:51;;;;;;;3.47;1.97;;;22.20;1.00;;;;;;5047750;28;20460;-79
2023/07/28 09:05:19;;;;;;;1.50;1.40;;;22.50;1.00;;;;;;5046633;28;20465;-78
2023/07/28 09:07:47;;;;;;;3.27;1.50;;;22.80;1.00;;;;;;5047145;28;20455;-78
2023/07/28 09:10:17;;;;;;;1.57;1.20;;;22.90;1.00;;;;;;5048205;28;20469;-80
2023/07/28 09:12:49;;;;;;;1.70;1.60;;;22.80;1.00;;;;;;5026979;28;20538;-79
2023/07/28 09:15:17;;;;;;;1.67;1.57;;;22.70;1.00;;;;;;5045566;28;20981;-78
2023/07/28 09:17:45;;;;;;;2.20;1.77;;;22.70;1.00;;;;;;5048073;28;20961;-78
2023/07/28 09:20:15;;;;;;;1.60;1.50;;;22.80;1.00;;;;;;5047334;28;20516;-78
2023/07/28 09:22:43;;;;;;;2.20;2.00;;;22.80;1.00;;;;;;5048658;28;20456;-79
2023/07/28 09:25:16;;;;;;;2.10;1.90;;;22.70;1.00;;;;;;5047498;28;20703;-78
2023/07/28 09:27:51;;;;;;;2.60;2.40;;;22.30;1.00;;;;;;5051675;28;20515;-78
2023/07/28 09:30:18;;;;;;;2.57;2.37;;;21.80;1.00;;;;;;5025989;28;20470;-78
2023/07/28 09:32:49;;;;;;;2.60;2.40;;;21.40;1.00;;;;;;5051370;28;20537;-76
2023/07/28 09:35:17;;;;;;;3.10;2.20;;;21.30;1.00;;;;;;5046248;28;20471;-78
2023/07/28 09:37:47;;;;;;;3.10;2.57;;;21.10;1.00;;;;;;5047038;28;20469;-79
2023/07/28 09:40:18;;;;;;;2.23;2.13;;;21.20;1.00;;;;;;5046446;28;20461;-79
2023/07/28 09:42:49;;;;;;;2.27;2.00;;;21.30;1.00;;;;;;5048266;28;20472;-77
2023/07/28 09:45:17;;;;;;;2.57;2.37;;;21.30;1.00;;;;;;5045876;28;20468;-80
2023/07/28 09:47:46;;;;;;;2.40;2.30;;;21.40;1.00;;;;;;5049447;28;20552;-77
2023/07/28 09:50:16;;;;;;;2.07;1.70;;;21.50;1.00;;;;;;5046810;28;20471;-77
2023/07/28 09:52:46;;;;;;;2.17;2.00;;;21.90;1.00;;;;;;5044552;28;20459;-79
2023/07/28 09:55:16;;;;;;;2.33;2.13;;;22.30;1.00;;;;;;5047442;28;20465;-79
2023/07/28 09:57:48;;;;;;;2.97;2.67;;;22.60;1.00;;;;;;5046251;28;20517;-76
2023/07/28 10:00:17;;;;;;;2.30;2.10;;;22.80;1.00;;;;;;5035287;28;20620;-77
2023/07/28 10:02:45;;;;;;;2.23;2.10;;;22.90;1.00;;;;;;5046127;28;20515;-77
2023/07/28 10:05:12;;;;;;;2.47;2.27;;;23.00;1.00;;;;;;5047927;28;20554;-78
2023/07/28 10:07:42;;;;;;;2.57;2.37;;;23.60;1.00;;;;;;5050742;28;20467;-77
2023/07/28 10:10:12;;;;;;;1.90;1.80;;;24.10;1.00;;;;;;5046880;28;20450;-78
2023/07/28 10:12:47;;;;;;;2.13;1.93;;;23.80;1.00;;;;;;5045026;28;20834;-79
2023/07/28 10:15:16;;;;;;;2.60;2.17;;;23.40;1.00;;;;;;5045864;28;20471;-79
2023/07/28 10:17:49;;;;;;;2.20;2.10;;;22.90;1.00;;;;;;5044083;28;20518;-78
2023/07/28 10:20:34;;;;;;;3.00;2.30;;;22.70;1.00;;;;;;5051688;28;20505;-78
2023/07/28 10:23:12;;;;;;;5.10;3.40;;;22.50;1.00;;;;;;5046960;28;20461;-77
2023/07/28 10:25:41;;;;;;;2.93;2.50;;;22.40;1.00;;;;;;5045410;28;20837;-77
2023/07/28 10:28:28;;;;;;;2.73;2.53;;;22.30;1.00;;;;;;5044591;28;20453;-77
2023/07/28 10:30:56;;;;;;;3.60;2.30;;;22.40;1.00;;;;;;5043044;28;20531;-78
2023/07/28 10:33:34;;;;;;;3.37;2.33;;;22.90;1.00;;;;;;5047380;28;20930;-78
2023/07/28 10:36:13;;;;;;;2.57;2.37;;;23.30;1.00;;;;;;5046458;28;20866;-79
2023/07/28 10:38:43;;;;;;;2.80;2.60;;;23.40;1.00;;;;;;5046126;28;20540;-78
2023/07/28 10:41:16;;;;;;;2.60;2.40;;;23.30;1.00;;;;;;5031587;28;20547;-78
2023/07/28 10:43:46;;;;;;;4.70;2.47;;;23.00;1.00;;;;;;5025341;28;20842;-79
2023/07/28 10:46:19;;;;;;;5.30;2.60;;;22.60;1.00;;;;;;5026031;28;20482;-77
2023/07/28 10:48:48;;;;;;;3.20;3.00;;;22.00;1.00;;;;;;5045023;28;20450;-76
2023/07/28 10:51:24;;;;;;;2.97;2.77;;;21.50;1.00;;;;;;5045142;28;20485;-78
2023/07/28 10:53:52;;;;;;;3.80;3.50;;;21.20;1.00;;;;;;5044988;28;20464;-77
2023/07/28 10:56:20;;;;;;;3.10;2.90;;;21.40;1.00;;;;;;5045825;28;20820;-77
2023/07/28 10:58:59;;;;;;;4.13;3.37;;;21.80;1.00;;;;;;5042216;28;20546;-76
2023/07/28 11:01:34;;;;;;;3.17;2.80;;;22.10;1.00;;;;;;5044917;28;20458;-76
2023/07/28 11:04:08;;;;;;;3.40;3.03;;;22.00;1.00;;;;;;5042707;28;20468;-77
2023/07/28 11:06:38;;;;;;;3.63;2.67;;;21.60;1.00;;;;;;5046450;28;21046;-76
2023/07/28 11:09:07;;;;;;;3.33;3.03;;;21.20;1.00;;;;;;5043002;28;20453;-76
2023/07/28 11:11:36;;;;;;;3.70;2.90;;;20.80;1.00;;;;;;5048323;28;20957;-76
2023/07/28 11:14:06;;;;;;;2.80;2.20;;;20.50;1.00;;;;;;5045804;28;20507;-77
2023/07/28 11:16:34;;;;;;;2.80;2.57;;;20.10;1.00;;;;;;5044572;28;20471;-76
2023/07/28 11:19:02;;;;;;;2.97;2.67;;;20.00;1.00;;;;;;5045238;28;20967;-76
2023/07/28 11:21:30;;;;;;;2.80;2.60;;;19.80;1.00;;;;;;5047257;28;20503;-76
2023/07/28 11:23:57;;;;;;;4.70;2.90;;;19.70;1.00;;;;;;5043554;28;20487;-77
2023/07/28 11:26:25;;;;;;;4.70;3.03;;;19.70;1.00;;;;;;5044509;28;20479;-76
2023/07/28 11:28:54;;;;;;;3.83;3.40;;;19.70;1.00;;;;;;5046018;28;20471;-75
2023/07/28 11:31:26;;;;;;;4.03;3.10;;;19.70;1.00;;;;;;5045858;28;20471;-76
2023/07/28 11:33:54;;;;;;;4.77;2.90;;;19.60;1.00;;;;;;5040548;28;20835;-76
2023/07/28 11:36:25;;;;;;;4.50;4.10;;;19.60;1.00;;;;;;5048950;28;20469;-76
2023/07/28 11:38:54;;;;;;;3.50;3.20;;;19.60;1.00;;;;;;5045856;28;20486;-75
2023/07/28 11:41:22;;;;;;;2.87;2.57;;;19.60;1.00;;;;;;5042150;28;20483;-75
2023/07/28 11:43:50;;;;;;;7.13;6.53;;;19.60;1.00;;;;;;5043166;28;20461;-75
2023/07/28 11:46:35;;;;;;;3.60;3.30;;;19.60;1.00;;;;;;5045100;28;20472;-76
2023/07/28 11:49:12;;;;;;;4.20;3.73;;;19.70;1.00;;;;;;5047073;28;20487;-76
2023/07/28 11:51:43;;;;;;;5.07;2.70;;;19.90;1.00;;;;;;5044165;28;20538;-76
2023/07/28 11:54:12;;;;;;;3.50;3.17;;;20.20;1.00;;;;;;5045363;28;21021;-75
2023/07/28 11:56:39;;;;;;;2.77;2.57;;;20.40;1.00;;;;;;5043259;28;20547;-76
2023/07/28 11:59:07;;;;;;;3.23;2.90;;;20.50;1.00;;;;;;5042967;28;20460;-77
2023/07/28 12:01:36;;;;;;;3.17;2.87;;;20.50;1.00;;;;;;5042689;28;20482;-76
2023/07/28 12:04:20;;;;;;;3.00;2.73;;;20.50;1.00;;;;;;5042130;28;20959;-76
2023/07/28 12:07:06;;;;;;;3.30;3.00;;;20.70;1.00;;;;;;5044579;28;20469;-75
2023/07/28 12:09:34;;;;;;;2.80;2.60;;;21.00;1.00;;;;;;5045125;28;20477;-76
2023/07/28 12:12:00;;;;;;;2.67;2.47;;;21.10;1.00;;;;;;5047127;28;20466;-76
2023/07/28 12:14:35;;;;;;;2.63;2.43;;;21.10;1.00;;;;;;5048030;28;20540;-75
2023/07/28 12:17:04;;;;;;;2.40;2.20;;;21.10;1.00;;;;;;5045112;28;20499;-76
2023/07/28 12:19:31;;;;;;;3.00;2.70;;;21.20;1.00;;;;;;5048422;28;20505;-76
2023/07/28 12:21:58;;;;;;;2.63;2.20;;;21.30;1.00;;;;;;5047991;28;20463;-77
2023/07/28 12:24:28;;;;;;;2.73;2.53;;;21.50;1.00;;;;;;5046569;28;20458;-77
2023/07/28 12:26:57;;;;;;;2.50;2.30;;;21.80;1.00;;;;;;5044090;28;20839;-76
2023/07/28 12:29:24;;;;;;;2.63;2.43;;;22.50;1.00;;;;;;5045291;28;20986;-76
2023/07/28 12:31:51;;;;;;;2.60;2.40;;;22.50;1.00;;;;;;5046091;28;20461;-76
2023/07/28 12:34:19;;;;;;;2.33;1.83;;;22.40;1.00;;;;;;5049787;28;20511;-76
2023/07/28 12:36:46;;;;;;;2.77;2.57;;;22.50;1.00;;;;;;5047535;28;20485;-76
2023/07/28 12:39:13;;;;;;;1.97;1.87;;;22.30;1.00;;;;;;5048291;28;20906;-75
2023/07/28 12:41:40;;;;;;;2.00;1.90;;;22.10;1.00;;;;;;5048116;28;20535;-77
2023/07/28 12:44:08;;;;;;;2.53;2.23;;;21.80;1.00;;;;;;5044847;28;20824;-78
2023/07/28 12:46:35;;;;;;;2.50;2.30;;;21.60;1.00;;;;;;5046453;28;20564;-76
2023/07/28 12:49:02;;;;;;;1.90;1.80;;;21.50;1.00;;;;;;5047997;28;20443;-76
2023/07/28 12:51:30;;;;;;;2.10;2.00;;;21.80;1.00;;;;;;5038092;28;20465;-77
2023/07/28 12:53:57;;;;;;;2.10;1.93;;;22.30;1.00;;;;;;5046159;28;20453;-76
2023/07/28 12:56:24;;;;;;;1.87;1.77;;;22.90;1.00;;;;;;5046020;28;20474;-77
2023/07/28 12:58:51;;;;;;;2.40;2.00;;;23.10;1.00;;;;;;5045148;28;20511;-76
2023/07/28 13:01:19;;;;;;;1.90;1.80;;;23.30;1.00;;;;;;5048447;28;20478;-77
2023/07/28 13:03:47;;;;;;;2.67;2.47;;;23.10;1.00;;;;;;5047128;28;20453;-77
2023/07/28 13:06:14;;;;;;;2.53;2.33;;;22.90;1.00;;;;;;5047219;28;20472;-77